Time;durP1;ratioP1;P1;durP2;ratioP2;P2;SDS_P1;SDS_P2;PMS_P1;PMS_P2;Temp;Humidity;BMP_temperature;BMP_pressure;BME280_temperature;BME280_humidity;BME280_pressure;Samples;Min_cycle;Max_cycle;Signal;HPM_P1;HPM_P2
2024/01/25 00:00:16;;;;;;;9.23;3.00;;;22.30;42.40;;;;;;10450424;28;20050;-46
2024/01/25 00:05:19;;;;;;;6.30;2.45;;;22.30;42.30;;;;;;10453787;28;20522;-46
2024/01/25 00:10:20;;;;;;;6.88;2.85;;;22.40;42.10;;;;;;10449997;28;20070;-46
2024/01/25 00:15:22;;;;;;;6.20;2.58;;;22.50;42.00;;;;;;10439998;28;20041;-46
2024/01/25 00:20:25;;;;;;;6.82;2.50;;;22.40;42.30;;;;;;10447594;28;20055;-48
2024/01/25 00:25:26;;;;;;;7.05;2.63;;;22.30;42.20;;;;;;10444786;28;20047;-46
2024/01/25 00:30:28;;;;;;;8.02;2.70;;;22.40;42.20;;;;;;10448640;28;20041;-46
2024/01/25 00:35:32;;;;;;;6.40;2.50;;;22.40;42.30;;;;;;10451138;28;20037;-46
2024/01/25 00:40:34;;;;;;;8.50;2.53;;;22.40;42.10;;;;;;10445069;28;20044;-44
2024/01/25 00:45:36;;;;;;;7.20;2.50;;;22.40;42.30;;;;;;10446599;28;20047;-47
2024/01/25 00:50:39;;;;;;;6.57;2.63;;;22.30;41.90;;;;;;10447700;28;20044;-47
2024/01/25 00:55:42;;;;;;;7.72;3.13;;;22.20;41.80;;;;;;10442476;28;20063;-47
2024/01/25 01:00:44;;;;;;;6.05;2.60;;;22.20;41.70;;;;;;10449262;28;20060;-46
2024/01/25 01:05:48;;;;;;;6.95;2.60;;;22.20;41.60;;;;;;10449588;28;20087;-47
2024/01/25 01:10:50;;;;;;;7.32;2.50;;;22.20;41.40;;;;;;10447793;28;20053;-46
2024/01/25 01:15:51;;;;;;;7.68;2.88;;;22.10;41.60;;;;;;10456368;28;20048;-46
2024/01/25 01:20:54;;;;;;;6.63;2.60;;;21.90;42.10;;;;;;10455875;28;20048;-46
2024/01/25 01:25:56;;;;;;;6.35;2.60;;;22.00;41.70;;;;;;10448473;28;20041;-47
2024/01/25 01:30:57;;;;;;;5.15;2.30;;;21.90;41.50;;;;;;10440746;28;20052;-47
2024/01/25 01:36:00;;;;;;;7.75;2.63;;;21.60;42.50;;;;;;10450676;28;20059;-46
2024/01/25 01:41:02;;;;;;;7.82;2.35;;;21.60;42.20;;;;;;10445025;28;20055;-46
2024/01/25 01:46:06;;;;;;;5.90;2.40;;;21.80;41.90;;;;;;10442478;28;20102;-45
2024/01/25 01:51:09;;;;;;;7.53;2.70;;;21.90;41.90;;;;;;10446193;28;20652;-45
2024/01/25 01:56:10;;;;;;;7.70;2.70;;;21.90;41.70;;;;;;10440059;28;20052;-46
2024/01/25 02:01:12;;;;;;;6.63;2.47;;;21.90;41.80;;;;;;10446509;28;20160;-46
2024/01/25 02:06:15;;;;;;;7.22;2.50;;;21.90;41.80;;;;;;10449254;28;20048;-44
2024/01/25 02:11:16;;;;;;;6.32;2.40;;;21.80;42.10;;;;;;10448072;28;20059;-45
2024/01/25 02:16:19;;;;;;;5.75;2.25;;;21.90;41.90;;;;;;10455862;28;20049;-46
2024/01/25 02:21:22;;;;;;;4.72;2.15;;;21.90;41.90;;;;;;10446235;28;20060;-45
2024/01/25 02:26:25;;;;;;;3.97;1.92;;;21.90;41.90;;;;;;10453461;28;20041;-46
2024/01/25 02:31:27;;;;;;;6.30;2.25;;;22.00;41.90;;;;;;10446580;28;20044;-46
2024/01/25 02:36:28;;;;;;;6.13;2.30;;;21.90;41.80;;;;;;10456094;28;20055;-45
2024/01/25 02:41:31;;;;;;;4.90;1.98;;;21.90;41.80;;;;;;10452387;28;20132;-49
2024/01/25 02:46:33;;;;;;;6.63;2.55;;;21.90;41.80;;;;;;10444415;28;20059;-47
2024/01/25 02:51:34;;;;;;;7.07;2.30;;;21.90;41.70;;;;;;10450510;28;20123;-48
2024/01/25 02:56:37;;;;;;;7.63;2.30;;;21.90;41.40;;;;;;10450910;28;20055;-48
2024/01/25 03:01:41;;;;;;;6.90;2.45;;;21.90;41.40;;;;;;10451041;28;20053;-47
2024/01/25 03:06:42;;;;;;;7.05;2.17;;;21.80;41.40;;;;;;10450688;28;20037;-47
2024/01/25 03:11:45;;;;;;;7.75;2.45;;;21.60;41.60;;;;;;10454957;28;20041;-47
2024/01/25 03:16:47;;;;;;;6.13;2.20;;;21.50;41.60;;;;;;10442063;28;20140;-46
2024/01/25 03:21:48;;;;;;;7.50;2.33;;;21.40;41.90;;;;;;10451606;28;20048;-47
2024/01/25 03:26:51;;;;;;;5.65;2.33;;;21.30;41.90;;;;;;10443147;28;20041;-48
2024/01/25 03:31:53;;;;;;;6.47;2.38;;;21.20;42.30;;;;;;10453830;28;20049;-48
2024/01/25 03:36:54;;;;;;;5.90;2.08;;;21.10;42.40;;;;;;10450270;28;20145;-45
2024/01/25 03:41:57;;;;;;;4.72;2.20;;;21.30;42.20;;;;;;10450157;28;20051;-47
2024/01/25 03:46:59;;;;;;;5.63;2.05;;;21.70;41.50;;;;;;10448244;28;20055;-48
2024/01/25 03:52:00;;;;;;;5.65;1.90;;;21.60;41.60;;;;;;10451530;28;20049;-48
2024/01/25 03:57:04;;;;;;;4.28;1.98;;;21.60;41.60;;;;;;10451072;28;20044;-46
2024/01/25 04:02:05;;;;;;;6.57;2.40;;;21.50;41.70;;;;;;10436651;28;20517;-45
2024/01/25 04:07:07;;;;;;;4.60;2.00;;;21.60;41.70;;;;;;10454704;28;20045;-46
2024/01/25 04:12:11;;;;;;;7.03;2.33;;;22.00;41.30;;;;;;10454034;28;20058;-45
2024/01/25 04:17:12;;;;;;;4.72;2.10;;;22.20;41.20;;;;;;10446231;28;20088;-48
2024/01/25 04:22:14;;;;;;;5.60;2.00;;;22.30;41.30;;;;;;10444557;28;20041;-46
2024/01/25 04:27:17;;;;;;;7.15;2.13;;;22.30;41.30;;;;;;10453533;28;20051;-46
2024/01/25 04:32:18;;;;;;;6.22;2.13;;;22.30;41.40;;;;;;10447710;28;20076;-48
2024/01/25 04:37:20;;;;;;;6.95;2.30;;;22.50;41.10;;;;;;10444587;28;20041;-46
2024/01/25 04:42:23;;;;;;;5.22;2.10;;;22.60;41.10;;;;;;10445022;28;20125;-46
2024/01/25 04:47:25;;;;;;;4.93;2.08;;;22.60;40.80;;;;;;10450396;28;20064;-45
2024/01/25 04:52:26;;;;;;;4.60;2.17;;;22.50;41.10;;;;;;10445530;28;20052;-44
2024/01/25 04:57:29;;;;;;;6.47;2.13;;;22.60;41.20;;;;;;10448112;28;20156;-46
2024/01/25 05:02:31;;;;;;;6.68;2.17;;;22.60;41.00;;;;;;10435633;28;20057;-49
2024/01/25 05:07:32;;;;;;;4.07;2.00;;;22.60;41.10;;;;;;10450504;28;20055;-44
2024/01/25 05:12:35;;;;;;;5.85;1.88;;;22.70;41.00;;;;;;10443464;28;20135;-47
2024/01/25 05:17:37;;;;;;;5.57;2.13;;;22.60;41.10;;;;;;10438961;28;20045;-44
2024/01/25 05:22:40;;;;;;;4.28;1.90;;;22.70;41.20;;;;;;10448529;28;20084;-45
2024/01/25 05:27:43;;;;;;;5.00;2.15;;;22.70;41.10;;;;;;10443818;28;20045;-47
2024/01/25 05:32:45;;;;;;;5.82;1.90;;;22.70;41.10;;;;;;10444274;28;20049;-45
2024/01/25 05:37:47;;;;;;;5.60;2.10;;;22.80;41.20;;;;;;10444401;28;20466;-47
2024/01/25 05:42:50;;;;;;;6.03;2.28;;;22.80;40.90;;;;;;10456500;28;20475;-46
2024/01/25 05:47:51;;;;;;;3.83;1.90;;;22.90;40.90;;;;;;10450350;28;20045;-46
2024/01/25 05:52:53;;;;;;;5.15;1.95;;;22.90;40.90;;;;;;10445942;28;20052;-48
2024/01/25 05:57:56;;;;;;;6.22;2.00;;;22.90;40.80;;;;;;10449855;28;20045;-48
2024/01/25 06:02:58;;;;;;;13.13;2.60;;;23.00;40.90;;;;;;10452211;28;20043;-46
2024/01/25 06:07:59;;;;;;;10.65;2.80;;;22.90;41.60;;;;;;10454503;28;20041;-49
2024/01/25 06:13:02;;;;;;;20.67;3.78;;;22.50;44.30;;;;;;10455556;28;20051;-45
2024/01/25 06:18:04;;;;;;;13.88;3.10;;;22.50;44.60;;;;;;10457728;28;20132;-48
2024/01/25 06:23:06;;;;;;;11.82;3.10;;;22.20;45.60;;;;;;10445120;28;20614;-47
2024/01/25 06:28:09;;;;;;;12.98;3.10;;;22.10;45.20;;;;;;10449989;28;20079;-47
2024/01/25 06:33:10;;;;;;;15.05;2.80;;;22.10;45.10;;;;;;10447100;28;20041;-47
2024/01/25 06:38:12;;;;;;;20.40;3.13;;;22.20;44.80;;;;;;10451437;28;20558;-48
2024/01/25 06:43:15;;;;;;;15.75;3.30;;;22.20;44.80;;;;;;10460593;28;20380;-45
2024/01/25 06:48:16;;;;;;;11.90;2.90;;;22.20;44.70;;;;;;10454056;28;20388;-48
2024/01/25 06:53:18;;;;;;;15.43;3.13;;;22.40;44.50;;;;;;10446612;28;20041;-47
2024/01/25 06:58:21;;;;;;;14.02;3.05;;;22.20;44.60;;;;;;10464022;28;20538;-46
2024/01/25 07:03:23;;;;;;;19.10;4.70;;;22.20;44.60;;;;;;10452295;28;20037;-48
2024/01/25 07:08:24;;;;;;;21.35;4.72;;;22.00;45.10;;;;;;10448397;28;20131;-49
2024/01/25 07:13:27;;;;;;;23.42;5.07;;;22.20;44.30;;;;;;10443213;28;20130;-48
2024/01/25 07:18:29;;;;;;;20.80;5.10;;;22.10;44.10;;;;;;10451679;28;20046;-47
2024/01/25 07:23:30;;;;;;;32.80;6.07;;;22.20;43.70;;;;;;10431365;28;20135;-46
2024/01/25 07:28:33;;;;;;;23.95;5.53;;;22.30;43.20;;;;;;10454133;28;20115;-48
2024/01/25 07:33:35;;;;;;;17.25;4.90;;;22.60;42.80;;;;;;10455724;28;20041;-44
2024/01/25 07:38:36;;;;;;;14.38;4.47;;;22.70;42.50;;;;;;10447808;28;20131;-50
2024/01/25 07:43:39;;;;;;;16.05;4.35;;;22.80;42.20;;;;;;10454014;28;20055;-46
2024/01/25 07:48:41;;;;;;;14.48;4.78;;;22.80;42.10;;;;;;10452880;28;20053;-47
2024/01/25 07:53:42;;;;;;;19.77;5.05;;;22.80;42.40;;;;;;10456873;28;20045;-46
2024/01/25 07:58:45;;;;;;;16.98;5.25;;;22.80;42.90;;;;;;10450264;28;20471;-46
2024/01/25 08:03:47;;;;;;;17.67;4.00;;;22.80;42.80;;;;;;10451711;28;20055;-47
2024/01/25 08:08:49;;;;;;;12.10;4.38;;;22.80;42.60;;;;;;10454505;28;20452;-47
2024/01/25 08:13:52;;;;;;;11.38;4.10;;;22.90;42.20;;;;;;10455962;28;20103;-49
2024/01/25 08:18:53;;;;;;;19.85;4.32;;;22.90;41.70;;;;;;10449644;28;20136;-47
2024/01/25 08:23:55;;;;;;;13.90;4.50;;;22.90;41.90;;;;;;10451542;28;20087;-47
2024/01/25 08:28:58;;;;;;;13.85;4.05;;;22.70;42.00;;;;;;10451442;28;20049;-47
2024/01/25 08:33:59;;;;;;;12.93;3.95;;;22.80;42.00;;;;;;10462300;28;20047;-44
2024/01/25 08:39:01;;;;;;;15.63;4.03;;;22.90;41.80;;;;;;10457140;28;20052;-45
2024/01/25 08:44:04;;;;;;;13.10;4.10;;;23.10;41.50;;;;;;10461004;28;20490;-51
2024/01/25 08:49:08;;;;;;;15.68;3.70;;;23.00;41.60;;;;;;10464764;28;20049;-45
2024/01/25 08:54:10;;;;;;;11.73;3.85;;;23.50;41.50;;;;;;10448601;28;20045;-47
2024/01/25 08:59:13;;;;;;;12.27;3.33;;;23.30;41.50;;;;;;10457771;28;20170;-49
2024/01/25 09:04:14;;;;;;;12.38;3.45;;;23.20;41.90;;;;;;10450384;28;20441;-47
2024/01/25 09:09:16;;;;;;;11.15;3.33;;;23.10;42.40;;;;;;10455528;28;20405;-46
2024/01/25 09:14:19;;;;;;;12.88;3.58;;;23.20;42.60;;;;;;10450278;28;20063;-47
2024/01/25 09:19:20;;;;;;;11.75;3.63;;;23.50;40.60;;;;;;10436932;28;20082;-49
2024/01/25 09:24:22;;;;;;;12.68;3.45;;;23.60;40.40;;;;;;10443497;28;20053;-47
2024/01/25 09:29:25;;;;;;;10.43;3.60;;;23.80;39.90;;;;;;10442584;28;20046;-45
2024/01/25 09:34:26;;;;;;;13.57;3.30;;;24.00;39.50;;;;;;10440271;28;20045;-49
2024/01/25 09:39:28;;;;;;;10.73;4.13;;;23.50;40.80;;;;;;10451041;28;20040;-45
2024/01/25 09:44:31;;;;;;;9.77;3.33;;;23.30;41.10;;;;;;10454389;28;20041;-48
2024/01/25 09:49:33;;;;;;;9.63;3.30;;;23.20;41.40;;;;;;10453303;28;20054;-51
2024/01/25 09:54:35;;;;;;;8.63;2.88;;;23.20;41.50;;;;;;10454221;28;20131;-47
2024/01/25 09:59:38;;;;;;;8.98;3.08;;;23.20;41.90;;;;;;10452747;28;20128;-47
2024/01/25 10:04:39;;;;;;;11.85;2.88;;;23.10;42.20;;;;;;10440204;28;21002;-45
2024/01/25 10:09:42;;;;;;;11.38;3.15;;;23.40;41.90;;;;;;10438601;28;20117;-50
2024/01/25 10:14:45;;;;;;;11.45;3.00;;;23.60;41.40;;;;;;10442438;28;20505;-48
2024/01/25 10:19:46;;;;;;;14.07;3.95;;;24.00;40.30;;;;;;10446129;28;21021;-47
2024/01/25 10:24:50;;;;;;;10.55;2.83;;;24.00;40.00;;;;;;10449234;28;20136;-48
2024/01/25 10:29:53;;;;;;;9.38;3.05;;;23.70;41.20;;;;;;10461473;28;20159;-47
2024/01/25 10:34:54;;;;;;;9.40;3.50;;;23.60;41.20;;;;;;10458268;28;20056;-46
2024/01/25 10:39:56;;;;;;;10.02;2.83;;;23.80;40.90;;;;;;10461990;28;20469;-47
2024/01/25 10:44:59;;;;;;;9.63;3.00;;;24.10;40.10;;;;;;10447735;28;20132;-49
2024/01/25 10:50:01;;;;;;;7.47;2.72;;;23.90;40.80;;;;;;10452533;28;20398;-48
2024/01/25 10:55:03;;;;;;;8.75;2.67;;;23.80;40.90;;;;;;10455039;28;20786;-48
2024/01/25 11:00:10;;;;;;;9.35;2.70;;;24.00;40.40;;;;;;10456445;28;20176;-49
2024/01/25 11:05:12;;;;;;;11.80;3.05;;;24.00;40.50;;;;;;10460639;28;20045;-48
2024/01/25 11:10:15;;;;;;;11.65;2.75;;;23.60;41.40;;;;;;10459315;28;20056;-48
2024/01/25 11:15:30;;;;;;;11.88;3.10;;;23.70;41.20;;;;;;10458864;28;20068;-48
2024/01/25 11:20:31;;;;;;;11.77;2.72;;;23.60;41.60;;;;;;10443671;28;20758;-48
2024/01/25 11:25:34;;;;;;;6.57;2.38;;;23.80;41.60;;;;;;10452387;28;20071;-47
2024/01/25 11:30:37;;;;;;;9.43;2.80;;;23.80;41.80;;;;;;10455179;28;20041;-49
2024/01/25 11:35:38;;;;;;;9.23;2.90;;;24.10;41.20;;;;;;10450932;28;20041;-47
2024/01/25 11:40:40;;;;;;;9.65;3.10;;;23.90;41.40;;;;;;10458886;28;20117;-47
2024/01/25 11:45:43;;;;;;;8.57;2.92;;;24.00;41.70;;;;;;10455883;28;20070;-49
2024/01/25 11:50:45;;;;;;;9.00;2.53;;;24.00;41.20;;;;;;10455758;28;20041;-49
2024/01/25 11:55:46;;;;;;;7.75;2.97;;;24.40;41.10;;;;;;10458189;28;20067;-48
2024/01/25 12:00:49;;;;;;;8.98;2.70;;;24.60;40.60;;;;;;10436500;28;20079;-46
2024/01/25 12:05:51;;;;;;;5.93;2.20;;;24.70;40.40;;;;;;10448205;28;20045;-47
2024/01/25 12:11:03;;;;;;;6.13;2.00;;;24.80;40.30;;;;;;10456875;28;20091;-49
2024/01/25 12:16:07;;;;;;;5.95;2.08;;;24.90;40.20;;;;;;10452107;28;20507;-50
2024/01/25 12:21:09;;;;;;;7.13;2.45;;;24.90;40.00;;;;;;10457686;28;20376;-48
2024/01/25 12:26:11;;;;;;;5.30;2.40;;;25.00;39.80;;;;;;10450235;28;20143;-48
2024/01/25 12:31:14;;;;;;;11.27;2.55;;;25.00;39.80;;;;;;10460299;28;20049;-48
2024/01/25 12:36:15;;;;;;;16.88;3.80;;;25.00;40.00;;;;;;10446506;28;20481;-48
2024/01/25 12:41:17;;;;;;;15.32;4.35;;;24.50;42.20;;;;;;10444660;28;20142;-49
2024/01/25 12:46:20;;;;;;;18.17;4.40;;;24.50;42.50;;;;;;10447432;28;20045;-49
2024/01/25 12:51:22;;;;;;;11.30;3.65;;;24.50;42.50;;;;;;10446637;28;20622;-48
2024/01/25 12:56:23;;;;;;;12.48;3.85;;;24.70;40.30;;;;;;10451891;28;20044;-48
2024/01/25 13:01:27;;;;;;;12.18;3.65;;;24.60;40.00;;;;;;10445355;28;20048;-46
2024/01/25 13:06:28;;;;;;;13.57;3.72;;;24.60;39.90;;;;;;10444639;28;20406;-44
2024/01/25 13:11:30;;;;;;;15.63;3.88;;;24.30;40.80;;;;;;10448321;28;20041;-48
2024/01/25 13:16:33;;;;;;;17.48;3.65;;;24.20;41.00;;;;;;10439108;28;20793;-43
2024/01/25 13:21:34;;;;;;;21.13;3.92;;;24.50;40.20;;;;;;10457546;28;20521;-47
2024/01/25 13:26:37;;;;;;;13.25;3.30;;;24.50;39.40;;;;;;10459858;28;21524;-44
2024/01/25 13:31:40;;;;;;;13.20;3.75;;;24.50;39.40;;;;;;10454028;28;20047;-44
2024/01/25 13:36:41;;;;;;;14.30;3.20;;;24.50;39.60;;;;;;10452239;28;20125;-47
2024/01/25 13:41:43;;;;;;;12.52;3.17;;;24.50;39.60;;;;;;10462273;28;20069;-44
2024/01/25 13:46:46;;;;;;;10.32;2.90;;;24.60;39.60;;;;;;10444234;28;20043;-47
2024/01/25 13:51:47;;;;;;;13.25;3.55;;;24.50;39.80;;;;;;10453597;28;20041;-44
2024/01/25 13:56:49;;;;;;;9.60;3.22;;;24.50;39.90;;;;;;10454952;28;20044;-44
2024/01/25 14:01:52;;;;;;;11.27;3.08;;;24.40;40.20;;;;;;10466348;28;20566;-46
2024/01/25 14:06:53;;;;;;;8.38;2.80;;;24.40;40.10;;;;;;10469348;28;20049;-44
2024/01/25 14:11:55;;;;;;;8.52;2.95;;;24.30;40.10;;;;;;10473046;28;20147;-45
2024/01/25 14:16:58;;;;;;;7.38;2.47;;;24.30;40.20;;;;;;10465810;28;20047;-45
2024/01/25 14:21:59;;;;;;;10.18;2.75;;;24.30;40.30;;;;;;10449899;28;20055;-44
2024/01/25 14:27:01;;;;;;;8.50;2.83;;;24.30;40.10;;;;;;10459987;28;20047;-44
2024/01/25 14:32:04;;;;;;;9.10;2.85;;;24.30;40.10;;;;;;10454444;28;20045;-44
2024/01/25 14:37:06;;;;;;;8.15;2.90;;;24.30;40.20;;;;;;10455421;28;20490;-49
2024/01/25 14:42:10;;;;;;;8.50;2.63;;;24.40;40.00;;;;;;10457068;28;20409;-44
2024/01/25 14:47:17;;;;;;;7.35;2.35;;;24.30;40.00;;;;;;10444553;28;20068;-44
2024/01/25 14:52:18;;;;;;;7.47;2.35;;;24.30;40.00;;;;;;10458734;28;20056;-45
2024/01/25 14:57:20;;;;;;;6.47;2.10;;;24.20;40.10;;;;;;10460862;28;20135;-52
2024/01/25 15:02:23;;;;;;;8.40;2.63;;;24.20;40.00;;;;;;10455518;28;20044;-44
2024/01/25 15:07:24;;;;;;;6.68;2.22;;;24.20;39.90;;;;;;10451623;28;20038;-44
2024/01/25 15:12:26;;;;;;;6.55;2.05;;;24.10;40.10;;;;;;10449903;28;20056;-44
2024/01/25 15:17:29;;;;;;;6.30;2.10;;;24.10;40.20;;;;;;10458228;28;20040;-51
2024/01/25 15:22:31;;;;;;;13.40;2.90;;;24.10;40.90;;;;;;10463568;28;20049;-44
2024/01/25 15:27:32;;;;;;;7.47;2.53;;;24.00;40.40;;;;;;10445984;28;20123;-46
2024/01/25 15:32:35;;;;;;;7.78;2.53;;;23.90;41.00;;;;;;10453953;28;20047;-55
2024/01/25 15:37:37;;;;;;;5.40;2.30;;;24.00;40.80;;;;;;10457994;28;20503;-49
2024/01/25 15:42:39;;;;;;;7.30;2.53;;;24.10;41.20;;;;;;10443378;28;20045;-46
2024/01/25 15:47:43;;;;;;;5.78;2.30;;;24.00;41.60;;;;;;10450704;28;20568;-49
2024/01/25 15:52:45;;;;;;;7.13;2.50;;;24.10;41.20;;;;;;10451723;28;20128;-48
2024/01/25 15:57:47;;;;;;;7.30;2.15;;;24.10;40.70;;;;;;10444350;28;20095;-44
2024/01/25 16:02:51;;;;;;;6.93;2.20;;;24.10;40.60;;;;;;10460082;28;20046;-44
2024/01/25 16:07:52;;;;;;;7.38;2.25;;;23.80;41.80;;;;;;10456484;28;20131;-44
2024/01/25 16:12:54;;;;;;;12.25;2.40;;;24.10;41.20;;;;;;10452838;28;20537;-50
2024/01/25 16:17:57;;;;;;;11.10;2.35;;;24.10;41.20;;;;;;10458163;28;20410;-44
2024/01/25 16:23:00;;;;;;;19.38;2.38;;;23.80;42.50;;;;;;10441296;28;20041;-46
2024/01/25 16:28:01;;;;;;;8.57;2.05;;;24.00;41.60;;;;;;10446530;28;20064;-44
2024/01/25 16:33:04;;;;;;;14.13;2.20;;;24.10;41.50;;;;;;10441781;28;20036;-50
2024/01/25 16:38:06;;;;;;;10.75;2.17;;;23.90;42.70;;;;;;10444661;28;20049;-44
2024/01/25 16:43:08;;;;;;;5.97;2.22;;;24.10;42.20;;;;;;10461335;28;20124;-47
2024/01/25 16:48:11;;;;;;;8.93;2.30;;;24.10;41.50;;;;;;10446062;28;20049;-49
2024/01/25 16:53:12;;;;;;;6.93;1.92;;;24.20;41.40;;;;;;10452476;28;20037;-44
2024/01/25 16:58:14;;;;;;;6.22;1.88;;;23.70;42.80;;;;;;10441309;28;20103;-52
2024/01/25 17:03:17;;;;;;;15.07;2.20;;;24.00;40.80;;;;;;10447313;28;20066;-44
2024/01/25 17:08:18;;;;;;;7.85;2.22;;;24.00;41.40;;;;;;10444184;28;20067;-47
2024/01/25 17:13:20;;;;;;;7.28;2.00;;;23.90;41.80;;;;;;10429645;28;20037;-49
2024/01/25 17:18:23;;;;;;;5.13;1.90;;;24.30;41.10;;;;;;10428854;28;20046;-45
2024/01/25 17:23:24;;;;;;;8.70;2.20;;;24.20;41.20;;;;;;10447537;28;20126;-45
2024/01/25 17:28:27;;;;;;;4.22;1.73;;;24.10;41.10;;;;;;10443796;28;20139;-44
2024/01/25 17:33:30;;;;;;;11.02;2.72;;;24.00;41.60;;;;;;10447421;28;20490;-44
2024/01/25 17:38:33;;;;;;;6.80;2.50;;;24.20;41.20;;;;;;10450961;28;20049;-48
2024/01/25 17:43:34;;;;;;;8.52;2.08;;;24.10;41.50;;;;;;10452466;28;20040;-46
2024/01/25 17:48:38;;;;;;;10.50;2.22;;;24.10;41.70;;;;;;10456948;28;20065;-51
2024/01/25 17:53:41;;;;;;;6.15;2.08;;;24.50;41.00;;;;;;10454424;28;20120;-44
2024/01/25 17:58:42;;;;;;;6.10;1.60;;;24.50;41.00;;;;;;10442730;28;20037;-49
2024/01/25 18:03:45;;;;;;;6.28;1.92;;;24.40;41.00;;;;;;10428547;28;20045;-46
2024/01/25 18:08:47;;;;;;;13.52;2.28;;;24.50;41.20;;;;;;10450584;28;20136;-47
2024/01/25 18:13:49;;;;;;;5.97;2.00;;;24.50;41.10;;;;;;10452158;28;20517;-44
2024/01/25 18:18:52;;;;;;;9.25;2.10;;;24.50;41.20;;;;;;10454092;28;20068;-44
2024/01/25 18:23:56;;;;;;;6.55;2.05;;;24.40;41.50;;;;;;10458842;28;20051;-46
2024/01/25 18:28:58;;;;;;;8.23;2.25;;;24.70;40.80;;;;;;10445895;28;20045;-54
2024/01/25 18:34:01;;;;;;;8.95;2.03;;;24.60;41.50;;;;;;10441113;28;20099;-43
2024/01/25 18:39:02;;;;;;;6.35;2.10;;;25.00;39.90;;;;;;10451018;28;20116;-47
2024/01/25 18:44:04;;;;;;;5.53;1.80;;;25.10;39.60;;;;;;10448310;28;20128;-44
2024/01/25 18:49:07;;;;;;;8.20;2.13;;;25.00;39.60;;;;;;10453733;28;20087;-44
2024/01/25 18:54:11;;;;;;;4.88;2.03;;;24.80;40.70;;;;;;10454918;28;20662;-50
2024/01/25 18:59:13;;;;;;;5.25;1.77;;;24.70;41.00;;;;;;10450293;28;20127;-49
2024/01/25 19:04:17;;;;;;;6.70;1.90;;;24.50;41.70;;;;;;10450935;28;20504;-50
2024/01/25 19:09:19;;;;;;;5.32;1.55;;;24.40;42.50;;;;;;10451014;28;20044;-43
2024/01/25 19:14:21;;;;;;;7.50;1.80;;;24.40;43.10;;;;;;10454148;28;20043;-49
2024/01/25 19:19:23;;;;;;;7.32;1.83;;;24.80;43.40;;;;;;10458266;28;20065;-46
2024/01/25 19:24:25;;;;;;;5.40;1.70;;;25.10;42.50;;;;;;10446532;28;20123;-46
2024/01/25 19:29:31;;;;;;;12.27;1.85;;;25.20;41.70;;;;;;10453428;28;20423;-45
2024/01/25 19:34:34;;;;;;;7.13;1.83;;;25.00;42.10;;;;;;10450264;28;20037;-48
2024/01/25 19:39:35;;;;;;;7.22;1.85;;;25.30;41.40;;;;;;10442787;28;20080;-46
2024/01/25 19:44:37;;;;;;;6.60;1.90;;;25.20;41.20;;;;;;10433315;28;20135;-47
2024/01/25 19:49:40;;;;;;;6.05;2.20;;;25.30;40.70;;;;;;10453026;28;20036;-43
2024/01/25 19:54:43;;;;;;;6.95;1.58;;;25.40;40.30;;;;;;10450831;28;20059;-44
2024/01/25 19:59:45;;;;;;;3.47;1.33;;;25.50;40.10;;;;;;10443218;28;20041;-46
2024/01/25 20:04:48;;;;;;;5.85;1.88;;;25.40;40.00;;;;;;10452486;28;20059;-48
2024/01/25 20:09:53;;;;;;;4.82;1.50;;;25.30;40.20;;;;;;10446964;28;20041;-49
2024/01/25 20:14:55;;;;;;;3.15;1.38;;;25.10;40.40;;;;;;10447438;28;20525;-44
2024/01/25 20:19:58;;;;;;;3.53;1.30;;;24.90;40.60;;;;;;10438076;28;20099;-47
2024/01/25 20:25:01;;;;;;;6.30;1.50;;;24.80;40.70;;;;;;10444462;28;20047;-44
2024/01/25 20:30:03;;;;;;;6.22;1.70;;;24.70;41.00;;;;;;10446380;28;20123;-44
2024/01/25 20:35:07;;;;;;;4.95;1.95;;;24.60;40.80;;;;;;10452174;28;20574;-49
2024/01/25 20:40:10;;;;;;;3.05;1.42;;;24.50;41.00;;;;;;10439419;28;20076;-45
2024/01/25 20:45:11;;;;;;;4.15;1.60;;;24.30;41.40;;;;;;10451811;28;20462;-49
2024/01/25 20:50:14;;;;;;;8.27;1.85;;;24.10;41.90;;;;;;10446870;28;20050;-46
2024/01/25 20:55:16;;;;;;;6.75;1.55;;;23.80;42.50;;;;;;10446063;28;20037;-49
2024/01/25 21:00:19;;;;;;;4.75;1.50;;;23.80;42.60;;;;;;10457192;28;20124;-46
2024/01/25 21:05:23;;;;;;;7.20;1.73;;;23.60;43.00;;;;;;10448885;28;20044;-45
2024/01/25 21:10:26;;;;;;;7.22;1.88;;;23.70;43.10;;;;;;10446035;28;20072;-44
2024/01/25 21:15:28;;;;;;;3.90;1.85;;;23.50;43.20;;;;;;10451562;28;20103;-44
2024/01/25 21:20:32;;;;;;;5.07;1.70;;;23.40;43.40;;;;;;10442480;28;20045;-45
2024/01/25 21:25:34;;;;;;;4.55;1.45;;;23.30;43.40;;;;;;10440833;28;20045;-44
2024/01/25 21:30:35;;;;;;;6.75;1.48;;;23.30;43.20;;;;;;10445587;28;20038;-49
2024/01/25 21:35:38;;;;;;;3.88;1.40;;;23.40;43.10;;;;;;10457383;28;20059;-44
2024/01/25 21:40:40;;;;;;;2.50;1.13;;;23.30;43.10;;;;;;10443884;28;20043;-50
2024/01/25 21:45:41;;;;;;;4.30;1.40;;;23.20;43.30;;;;;;10462742;28;20045;-44
2024/01/25 21:50:45;;;;;;;4.75;1.88;;;23.20;43.40;;;;;;10452791;28;20049;-44
2024/01/25 21:55:47;;;;;;;3.88;2.08;;;23.30;42.90;;;;;;10439602;28;20135;-45
2024/01/25 22:00:48;;;;;;;6.20;1.55;;;23.40;42.70;;;;;;10443306;28;20069;-49
2024/01/25 22:05:51;;;;;;;3.17;1.30;;;23.20;43.00;;;;;;10440549;28;20159;-49
2024/01/25 22:10:53;;;;;;;4.82;1.35;;;23.10;43.00;;;;;;10450428;28;20076;-45
2024/01/25 22:15:55;;;;;;;4.00;1.10;;;23.10;43.90;;;;;;10450189;28;20041;-44
2024/01/25 22:20:58;;;;;;;3.17;1.40;;;23.10;43.10;;;;;;10449470;28;20107;-44
2024/01/25 22:25:59;;;;;;;2.88;1.30;;;23.10;43.10;;;;;;10448684;28;20055;-45
2024/01/25 22:31:01;;;;;;;6.63;1.58;;;23.00;43.20;;;;;;10453791;28;20037;-46
2024/01/25 22:36:05;;;;;;;3.35;1.10;;;23.00;43.00;;;;;;10456427;28;20136;-45
2024/01/25 22:41:06;;;;;;;2.80;1.40;;;22.90;43.10;;;;;;10446920;28;20125;-51
2024/01/25 22:46:08;;;;;;;3.85;1.27;;;22.80;43.30;;;;;;10440605;28;20079;-44
2024/01/25 22:51:11;;;;;;;3.63;1.23;;;22.70;43.20;;;;;;10455022;28;20047;-44
2024/01/25 22:56:14;;;;;;;2.97;1.15;;;22.70;43.10;;;;;;10459877;28;20056;-46
2024/01/25 23:01:15;;;;;;;2.42;1.40;;;22.60;43.30;;;;;;10463121;28;20049;-47
2024/01/25 23:06:19;;;;;;;2.15;1.30;;;22.60;43.40;;;;;;10455337;28;20045;-44
2024/01/25 23:11:21;;;;;;;3.53;1.50;;;22.50;43.50;;;;;;10441925;28;20095;-51
2024/01/25 23:16:22;;;;;;;2.33;1.35;;;22.50;43.40;;;;;;10449774;28;20052;-44
2024/01/25 23:21:25;;;;;;;3.40;1.70;;;22.50;43.40;;;;;;10460870;28;20113;-48
2024/01/25 23:26:27;;;;;;;3.28;1.25;;;22.30;43.50;;;;;;10451569;28;20044;-44
2024/01/25 23:31:28;;;;;;;2.17;1.35;;;22.20;43.60;;;;;;10459862;28;20045;-50
2024/01/25 23:36:33;;;;;;;2.17;1.25;;;22.30;43.50;;;;;;10450870;28;20092;-44
2024/01/25 23:41:35;;;;;;;1.75;0.98;;;22.30;43.30;;;;;;10457532;28;20036;-50
2024/01/25 23:46:38;;;;;;;2.53;1.20;;;22.40;43.30;;;;;;10450169;28;20550;-44
2024/01/25 23:51:42;;;;;;;2.65;1.30;;;22.20;43.50;;;;;;10462634;28;20045;-50
2024/01/25 23:56:43;;;;;;;3.05;1.50;;;22.00;44.50;;;;;;10455378;28;20503;-52
